Time;durP1;ratioP1;P1;durP2;ratioP2;P2;SDS_P1;SDS_P2;PMS_P1;PMS_P2;Temp;Humidity;BMP_temperature;BMP_pressure;BME280_temperature;BME280_humidity;BME280_pressure;Samples;Min_cycle;Max_cycle;Signal;HPM_P1;HPM_P2
2024/03/13 00:01:39;;;;;;;12.68;5.60;;;;;;;;;;5028482;28;20029;-86
2024/03/13 00:04:06;;;;;;;14.38;5.55;;;;;;;;;;5022700;28;20033;-87
2024/03/13 00:06:33;;;;;;;14.23;5.40;;;;;;;;;;5025413;28;20029;-88
2024/03/13 00:08:59;;;;;;;14.05;5.88;;;;;;;;;;5028659;28;20082;-87
2024/03/13 00:11:27;;;;;;;12.18;5.45;;;;;;;;;;5026304;28;20057;-87
2024/03/13 00:13:55;;;;;;;12.82;5.45;;;;;;;;;;5029471;28;20025;-89
2024/03/13 00:16:21;;;;;;;13.15;5.20;;;;;;;;;;5032366;28;20029;-88
2024/03/13 00:18:47;;;;;;;10.95;5.18;;;;;;;;;;5031747;28;20124;-89
2024/03/13 00:21:13;;;;;;;10.30;4.40;;;;;;;;;;5032835;28;20056;-89
2024/03/13 00:23:40;;;;;;;11.85;4.90;;;;;;;;;;5033196;28;20033;-89
2024/03/13 00:26:06;;;;;;;10.50;4.32;;;;;;;;;;5038380;28;20033;-89
2024/03/13 00:28:32;;;;;;;11.52;4.38;;;;;;;;;;5035107;28;20037;-87
2024/03/13 00:31:03;;;;;;;9.82;3.80;;;;;;;;;;5044316;28;20037;-88
2024/03/13 00:33:29;;;;;;;10.45;3.42;;;;;;;;;;5043421;28;20338;-87
2024/03/13 00:35:57;;;;;;;10.75;3.90;;;;;;;;;;5034161;28;20059;-86
2024/03/13 00:38:25;;;;;;;10.45;3.38;;;;;;;;;;5024615;28;20044;-88
2024/03/13 00:40:52;;;;;;;11.35;3.08;;;;;;;;;;5032148;28;20091;-88
2024/03/13 00:43:20;;;;;;;8.68;3.17;;;;;;;;;;5028449;28;20025;-88
2024/03/13 00:45:48;;;;;;;11.07;3.60;;;;;;;;;;5023446;28;20491;-88
2024/03/13 00:48:17;;;;;;;11.25;3.70;;;;;;;;;;5018769;28;20148;-87
2024/03/13 00:50:46;;;;;;;10.68;3.53;;;;;;;;;;5023266;28;20028;-89
2024/03/13 00:53:14;;;;;;;10.43;3.40;;;;;;;;;;5016267;28;20083;-88
2024/03/13 00:55:40;;;;;;;10.65;3.00;;;;;;;;;;5020589;28;20132;-87
2024/03/13 00:58:09;;;;;;;;;;;;;;;;;;5015966;28;20284;-88
2024/03/13 01:00:37;;;;;;;11.30;2.95;;;;;;;;;;5021636;28;19943;-89
2024/03/13 01:03:03;;;;;;;10.75;2.70;;;;;;;;;;5018427;28;20555;-87
2024/03/13 01:05:32;;;;;;;7.63;2.40;;;;;;;;;;5014633;28;20034;-87
2024/03/13 01:07:59;;;;;;;11.00;2.80;;;;;;;;;;5018957;28;20129;-88
2024/03/13 01:10:26;;;;;;;9.55;2.28;;;;;;;;;;5012952;28;20075;-87
2024/03/13 01:12:53;;;;;;;7.80;2.50;;;;;;;;;;5018632;28;21033;-88
2024/03/13 01:15:20;;;;;;;;;;;;;;;;;;5018524;28;20037;-87
2024/03/13 01:17:46;;;;;;;9.30;2.33;;;;;;;;;;5018797;28;19920;-89
2024/03/13 01:20:18;;;;;;;9.65;2.50;;;;;;;;;;5017079;28;20727;-87
2024/03/13 01:22:48;;;;;;;9.63;2.40;;;;;;;;;;5018298;28;20115;-88
2024/03/13 01:25:15;;;;;;;6.15;2.10;;;;;;;;;;5015077;28;20059;-86
2024/03/13 01:27:42;;;;;;;9.35;2.95;;;;;;;;;;5017704;28;20037;-87
2024/03/13 01:30:14;;;;;;;9.35;3.00;;;;;;;;;;5013083;28;20373;-87
2024/03/13 01:32:43;;;;;;;10.00;2.72;;;;;;;;;;5019745;28;20025;-87
2024/03/13 01:35:10;;;;;;;7.60;2.78;;;;;;;;;;5018762;28;20097;-88
2024/03/13 01:40:25;;;;;;;11.98;3.20;;;;;;;;;;5016503;28;20052;-87
2024/03/13 01:57:18;;;;;;;12.25;5.20;;;;;;;;;;4997172;28;20041;-90
2024/03/13 02:02:22;;;;;;;12.35;5.03;;;;;;;;;;5006462;28;20033;-89
2024/03/13 02:02:36;;;;;;;11.55;5.10;;;;;;;;;;5005030;28;20576;-88
2024/03/13 02:05:03;;;;;;;12.68;4.68;;;;;;;;;;4990471;28;20064;-88
2024/03/13 02:07:29;;;;;;;9.82;3.95;;;;;;;;;;4989096;28;20144;-89
2024/03/13 02:09:58;;;;;;;10.30;3.55;;;;;;;;;;4990113;28;20917;-89
2024/03/13 02:12:24;;;;;;;10.35;3.15;;;;;;;;;;4986752;28;20026;-87
2024/03/13 02:14:50;;;;;;;9.43;2.83;;;;;;;;;;5013909;28;20033;-87
2024/03/13 02:17:16;;;;;;;8.27;2.17;;;;;;;;;;4998228;28;20593;-88
2024/03/13 02:19:42;;;;;;;9.07;2.42;;;;;;;;;;5006366;28;20084;-88
2024/03/13 02:22:08;;;;;;;8.85;2.38;;;;;;;;;;5014558;28;20053;-87
2024/03/13 02:24:34;;;;;;;9.13;2.45;;;;;;;;;;5026250;28;20029;-88
2024/03/13 02:27:01;;;;;;;10.18;2.90;;;;;;;;;;5021339;28;20041;-87
2024/03/13 02:29:28;;;;;;;;;;;;;;;;;;5022366;28;20034;-88
2024/03/13 02:31:55;;;;;;;9.85;2.78;;;;;;;;;;5024228;28;19924;-88
2024/03/13 02:34:21;;;;;;;11.00;3.10;;;;;;;;;;5017799;28;20030;-86
2024/03/13 02:36:51;;;;;;;7.90;2.45;;;;;;;;;;5022636;28;20056;-89
2024/03/13 02:39:20;;;;;;;7.80;2.40;;;;;;;;;;5022079;28;20044;-87
2024/03/13 02:41:47;;;;;;;8.70;2.50;;;;;;;;;;5030086;28;20392;-85
2024/03/13 02:44:13;;;;;;;9.85;2.67;;;;;;;;;;5026183;28;20047;-89
2024/03/13 02:46:40;;;;;;;9.73;2.50;;;;;;;;;;5026477;28;20029;-88
2024/03/13 02:49:06;;;;;;;7.88;2.20;;;;;;;;;;5028405;28;20041;-89
2024/03/13 02:51:34;;;;;;;8.75;2.60;;;;;;;;;;5030561;28;20029;-86
2024/03/13 02:54:00;;;;;;;7.45;2.25;;;;;;;;;;5032282;28;20063;-87
2024/03/13 02:56:26;;;;;;;8.20;2.17;;;;;;;;;;5027938;28;20701;-87
2024/03/13 02:58:53;;;;;;;8.07;2.40;;;;;;;;;;5033436;28;20029;-90
2024/03/13 03:01:19;;;;;;;7.18;2.20;;;;;;;;;;5028912;28;20052;-88
2024/03/13 03:03:45;;;;;;;9.10;2.70;;;;;;;;;;5037838;28;20582;-89
2024/03/13 03:06:11;;;;;;;8.45;2.20;;;;;;;;;;5033035;28;20037;-88
2024/03/13 03:08:41;;;;;;;7.70;2.17;;;;;;;;;;5033938;28;20028;-90
2024/03/13 03:11:07;;;;;;;6.55;1.95;;;;;;;;;;5028191;28;20059;-86
2024/03/13 03:13:38;;;;;;;7.40;2.17;;;;;;;;;;5024339;28;20029;-86
2024/03/13 03:16:05;;;;;;;9.15;2.20;;;;;;;;;;5023265;28;20021;-88
2024/03/13 03:18:31;;;;;;;7.95;2.08;;;;;;;;;;5021263;28;20720;-85
2024/03/13 03:20:58;;;;;;;7.97;2.55;;;;;;;;;;5025018;28;20033;-90
2024/03/13 03:23:24;;;;;;;7.63;2.58;;;;;;;;;;5022840;28;20025;-89
2024/03/13 03:25:51;;;;;;;9.13;2.65;;;;;;;;;;5022684;28;20029;-89
2024/03/13 03:28:17;;;;;;;7.82;2.30;;;;;;;;;;5022473;28;20050;-87
2024/03/13 03:30:46;;;;;;;8.30;2.00;;;;;;;;;;5021597;28;20033;-90
2024/03/13 03:33:18;;;;;;;7.43;2.20;;;;;;;;;;5015940;28;20021;-89
2024/03/13 03:35:44;;;;;;;6.60;2.05;;;;;;;;;;5025091;28;20029;-89
2024/03/13 03:38:10;;;;;;;7.50;1.95;;;;;;;;;;5016304;28;20052;-89
2024/03/13 03:40:37;;;;;;;7.43;2.28;;;;;;;;;;5019678;28;20053;-88
2024/03/13 03:43:04;;;;;;;8.60;2.58;;;;;;;;;;5025867;28;20033;-87
2024/03/13 03:45:30;;;;;;;9.15;2.08;;;;;;;;;;5017757;28;20184;-88
2024/03/13 03:47:56;;;;;;;8.55;2.00;;;;;;;;;;5016802;28;20245;-90
2024/03/13 03:50:22;;;;;;;6.97;1.98;;;;;;;;;;5017690;28;20750;-88
2024/03/13 03:52:49;;;;;;;6.50;2.10;;;;;;;;;;5023949;28;20099;-89
2024/03/13 03:55:15;;;;;;;8.88;2.00;;;;;;;;;;5022043;28;20032;-89
2024/03/13 03:57:41;;;;;;;6.80;1.83;;;;;;;;;;5027389;28;20029;-87
2024/03/13 04:00:12;;;;;;;8.20;2.03;;;;;;;;;;5015835;28;20029;-88
2024/03/13 04:02:38;;;;;;;8.02;1.95;;;;;;;;;;5019114;28;20036;-87
2024/03/13 04:05:08;;;;;;;;;;;;;;;;;;5021727;28;20052;-90
2024/03/13 04:07:36;;;;;;;7.82;1.77;;;;;;;;;;5033938;28;19909;-89
2024/03/13 04:10:03;;;;;;;7.75;2.03;;;;;;;;;;5038567;28;20025;-88
2024/03/13 04:12:29;;;;;;;6.32;1.55;;;;;;;;;;5031113;28;20040;-89
2024/03/13 04:14:56;;;;;;;9.75;1.92;;;;;;;;;;5020896;28;20028;-91
2024/03/13 04:17:22;;;;;;;7.72;1.95;;;;;;;;;;5018575;28;20025;-89
2024/03/13 04:19:48;;;;;;;9.68;2.70;;;;;;;;;;5023353;28;20116;-87
2024/03/13 04:22:15;;;;;;;;;;;;;;;;;;5020498;28;20048;-87
2024/03/13 04:24:41;;;;;;;7.03;2.05;;;;;;;;;;5019775;28;19951;-87
2024/03/13 04:27:08;;;;;;;8.10;2.00;;;;;;;;;;5018350;28;20037;-86
2024/03/13 04:29:34;;;;;;;7.22;2.00;;;;;;;;;;5017464;28;20029;-87
2024/03/13 04:32:00;;;;;;;8.15;2.22;;;;;;;;;;5021295;28;20232;-89
2024/03/13 04:34:26;;;;;;;8.43;2.33;;;;;;;;;;5015367;28;20026;-88
2024/03/13 04:36:53;;;;;;;7.82;2.00;;;;;;;;;;5020776;28;20029;-89
2024/03/13 04:39:21;;;;;;;8.88;2.10;;;;;;;;;;5019410;28;20090;-89
2024/03/13 04:41:49;;;;;;;7.32;2.00;;;;;;;;;;5019627;28;20029;-87
2024/03/13 04:44:16;;;;;;;7.35;2.08;;;;;;;;;;5020883;28;20056;-87
2024/03/13 04:46:45;;;;;;;6.57;1.90;;;;;;;;;;5024303;28;20041;-87
2024/03/13 04:49:12;;;;;;;6.45;1.88;;;;;;;;;;5018014;28;20380;-88
2024/03/13 04:51:39;;;;;;;6.40;1.85;;;;;;;;;;5022996;28;20050;-88
2024/03/13 04:54:08;;;;;;;6.82;2.05;;;;;;;;;;5024036;28;20102;-88
2024/03/13 04:56:34;;;;;;;8.10;1.83;;;;;;;;;;5022001;28;20029;-90
2024/03/13 04:59:01;;;;;;;7.75;2.00;;;;;;;;;;5023040;28;20126;-88
2024/03/13 05:01:27;;;;;;;7.25;1.90;;;;;;;;;;5036226;28;20291;-87
2024/03/13 05:03:53;;;;;;;8.73;2.00;;;;;;;;;;5027817;28;20215;-89
2024/03/13 05:06:20;;;;;;;7.05;1.90;;;;;;;;;;5022812;28;20036;-89
2024/03/13 05:08:48;;;;;;;6.82;1.65;;;;;;;;;;5017731;28;20468;-88
2024/03/13 05:11:14;;;;;;;7.05;1.80;;;;;;;;;;5018381;28;20029;-89
2024/03/13 05:13:41;;;;;;;7.07;1.75;;;;;;;;;;5024174;28;20037;-90
2024/03/13 05:16:09;;;;;;;6.55;1.73;;;;;;;;;;5021744;28;20035;-85
2024/03/13 05:18:36;;;;;;;5.97;1.65;;;;;;;;;;5016092;28;20017;-91
2024/03/13 05:21:02;;;;;;;6.65;1.88;;;;;;;;;;5020190;28;20057;-90
2024/03/13 05:23:28;;;;;;;9.18;2.17;;;;;;;;;;5014809;28;20045;-88
2024/03/13 05:25:55;;;;;;;6.72;1.88;;;;;;;;;;5018997;28;20029;-88
2024/03/13 05:28:22;;;;;;;7.50;1.90;;;;;;;;;;5019648;28;20118;-90
2024/03/13 05:30:47;;;;;;;;;;;;;;;;;;5015184;28;20586;-89
2024/03/13 05:33:14;;;;;;;6.65;2.05;;;;;;;;;;5015743;28;19999;-89
2024/03/13 05:35:40;;;;;;;;;;;;;;;;;;5022225;28;20115;-89
2024/03/13 05:38:07;;;;;;;10.30;2.17;;;;;;;;;;5024488;28;19923;-88
2024/03/13 05:40:34;;;;;;;8.32;2.15;;;;;;;;;;5021147;28;20033;-88
2024/03/13 05:43:00;;;;;;;10.13;2.10;;;;;;;;;;5019923;28;20145;-88
2024/03/13 05:45:26;;;;;;;9.55;2.25;;;;;;;;;;5017680;28;20052;-88
2024/03/13 05:47:52;;;;;;;6.57;2.00;;;;;;;;;;5017335;28;20033;-89
2024/03/13 05:50:18;;;;;;;7.25;2.20;;;;;;;;;;5013422;28;20148;-90
2024/03/13 05:52:48;;;;;;;7.30;2.22;;;;;;;;;;5018508;28;20052;-89
2024/03/13 05:55:14;;;;;;;9.25;2.25;;;;;;;;;;5021420;28;20060;-90
2024/03/13 05:57:40;;;;;;;6.40;1.90;;;;;;;;;;5020196;28;20021;-87
2024/03/13 06:00:09;;;;;;;10.18;2.67;;;;;;;;;;5016173;28;20029;-90
2024/03/13 06:02:36;;;;;;;7.07;1.88;;;;;;;;;;5019769;28;20424;-89
2024/03/13 06:05:09;;;;;;;6.18;1.92;;;;;;;;;;5014644;28;20537;-88
2024/03/13 06:07:35;;;;;;;7.15;2.20;;;;;;;;;;5017649;28;20035;-88
2024/03/13 06:10:02;;;;;;;9.30;2.35;;;;;;;;;;5015848;28;20127;-88
2024/03/13 06:12:28;;;;;;;;;;;;;;;;;;5023278;28;20049;-90
2024/03/13 06:14:54;;;;;;;8.00;2.72;;;;;;;;;;5029726;28;19991;-88
2024/03/13 06:17:20;;;;;;;8.02;2.33;;;;;;;;;;5031464;28;20037;-89
2024/03/13 06:19:46;;;;;;;8.68;2.38;;;;;;;;;;5029812;28;20029;-89
2024/03/13 06:22:12;;;;;;;7.10;2.40;;;;;;;;;;5029899;28;20044;-88
2024/03/13 06:24:39;;;;;;;7.82;2.30;;;;;;;;;;5029360;28;20139;-88
2024/03/13 06:27:15;;;;;;;7.28;2.20;;;;;;;;;;5038664;28;20041;-90
2024/03/13 06:29:58;;;;;;;6.80;2.40;;;;;;;;;;5033856;28;20037;-88
2024/03/13 06:32:25;;;;;;;9.40;2.70;;;;;;;;;;5022348;28;20033;-86
2024/03/13 06:34:52;;;;;;;9.02;2.55;;;;;;;;;;5023576;28;20512;-87
2024/03/13 06:37:18;;;;;;;8.43;2.58;;;;;;;;;;5020781;28;20028;-89
2024/03/13 06:39:44;;;;;;;8.80;2.72;;;;;;;;;;5019945;28;20603;-89
2024/03/13 06:42:13;;;;;;;9.48;2.95;;;;;;;;;;5015117;28;20111;-84
2024/03/13 06:44:39;;;;;;;9.05;3.05;;;;;;;;;;5017930;28;20430;-85
2024/03/13 06:47:07;;;;;;;9.88;3.67;;;;;;;;;;5021097;28;20093;-89
2024/03/13 06:49:33;;;;;;;10.48;3.90;;;;;;;;;;5019228;28;20193;-89
2024/03/13 06:52:00;;;;;;;10.60;3.30;;;;;;;;;;5014871;28;20096;-88
2024/03/13 06:54:26;;;;;;;10.18;3.33;;;;;;;;;;5010732;28;20713;-87
2024/03/13 06:56:53;;;;;;;10.13;3.40;;;;;;;;;;5019856;28;20670;-88
2024/03/13 06:59:19;;;;;;;9.45;3.30;;;;;;;;;;5014044;28;20021;-86
2024/03/13 07:01:51;;;;;;;9.13;3.30;;;;;;;;;;5018785;28;20036;-87
2024/03/13 07:04:17;;;;;;;10.85;2.95;;;;;;;;;;5010939;28;20030;-86
2024/03/13 07:06:43;;;;;;;8.45;3.28;;;;;;;;;;5013548;28;20811;-90
2024/03/13 07:09:09;;;;;;;10.18;3.65;;;;;;;;;;5012342;28;20034;-88
2024/03/13 07:11:37;;;;;;;15.40;5.18;;;;;;;;;;5015927;28;20025;-89
2024/03/13 07:14:04;;;;;;;12.55;5.50;;;;;;;;;;5015617;28;20072;-90
2024/03/13 07:16:31;;;;;;;14.70;5.93;;;;;;;;;;5003383;28;20030;-80
2024/03/13 07:18:59;;;;;;;;;;;;;;;;;;4995334;28;20029;-79
2024/03/13 07:21:25;;;;;;;17.55;6.07;;;;;;;;;;4993860;28;19912;-76
2024/03/13 07:23:52;;;;;;;16.65;8.30;;;;;;;;;;4996233;28;20084;-78
2024/03/13 07:26:18;;;;;;;14.82;6.55;;;;;;;;;;5001605;28;20021;-84
2024/03/13 07:28:44;;;;;;;14.43;6.28;;;;;;;;;;4999881;28;20660;-81
2024/03/13 07:31:10;;;;;;;14.70;6.82;;;;;;;;;;4995351;28;20579;-79
2024/03/13 07:33:38;;;;;;;15.90;7.95;;;;;;;;;;4999458;28;20507;-78
2024/03/13 07:36:04;;;;;;;16.48;7.97;;;;;;;;;;4999633;28;20025;-79
2024/03/13 07:38:32;;;;;;;;;;;;;;;;;;4995776;28;20046;-79
2024/03/13 07:40:58;;;;;;;15.77;7.38;;;;;;;;;;4998254;28;19920;-81
2024/03/13 07:43:24;;;;;;;;;;;;;;;;;;5000515;28;20037;-80
2024/03/13 07:45:50;;;;;;;15.05;6.10;;;;;;;;;;5002152;28;19982;-80
2024/03/13 07:48:16;;;;;;;13.48;4.10;;;;;;;;;;4998979;28;20025;-80
2024/03/13 07:50:43;;;;;;;12.15;3.15;;;;;;;;;;4999391;28;20105;-86
2024/03/13 07:53:09;;;;;;;;;;;;;;;;;;5013193;28;20960;-85
2024/03/13 07:55:36;;;;;;;13.25;2.85;;;;;;;;;;5021925;28;20547;-84
2024/03/13 07:58:03;;;;;;;12.02;2.90;;;;;;;;;;5007820;28;20803;-81
2024/03/13 08:00:29;;;;;;;12.27;3.10;;;;;;;;;;5001587;28;22155;-81
2024/03/13 08:02:55;;;;;;;8.30;2.50;;;;;;;;;;5000067;28;20033;-80
2024/03/13 08:05:25;;;;;;;7.55;2.03;;;;;;;;;;4999828;28;20197;-79
2024/03/13 08:07:51;;;;;;;8.90;2.17;;;;;;;;;;5005825;28;20574;-87
2024/03/13 08:10:18;;;;;;;;;;;;;;;;;;5004642;28;20403;-82
2024/03/13 08:12:45;;;;;;;10.32;2.70;;;;;;;;;;5007044;28;19917;-80
2024/03/13 08:15:11;;;;;;;7.97;2.45;;;;;;;;;;5000411;28;20549;-85
2024/03/13 08:17:38;;;;;;;11.27;2.80;;;;;;;;;;5008553;28;20033;-79
2024/03/13 08:20:05;;;;;;;8.63;2.65;;;;;;;;;;5002625;28;20128;-81
2024/03/13 08:22:32;;;;;;;10.88;2.92;;;;;;;;;;5011515;28;20080;-88
2024/03/13 08:24:58;;;;;;;;;;;;;;;;;;5016857;28;20068;-85
2024/03/13 08:27:24;;;;;;;9.88;2.80;;;;;;;;;;5002048;28;19920;-81
2024/03/13 08:29:51;;;;;;;15.00;3.03;;;;;;;;;;5003695;28;20056;-81
2024/03/13 08:32:17;;;;;;;10.50;3.20;;;;;;;;;;5004725;28;20048;-91
2024/03/13 08:34:43;;;;;;;10.70;2.92;;;;;;;;;;5017818;28;20025;-88
2024/03/13 08:37:10;;;;;;;;;;;;;;;;;;5022641;28;20522;-89
2024/03/13 08:39:36;;;;;;;10.23;2.42;;;;;;;;;;5011474;28;20362;-77
2024/03/13 08:42:03;;;;;;;10.63;2.60;;;;;;;;;;5005871;28;20037;-79
2024/03/13 08:44:29;;;;;;;9.70;2.40;;;;;;;;;;5000216;28;20095;-80
2024/03/13 08:46:55;;;;;;;9.52;2.40;;;;;;;;;;5003487;28;20040;-80
2024/03/13 08:49:22;;;;;;;7.43;2.10;;;;;;;;;;4998298;28;20032;-80
2024/03/13 08:51:48;;;;;;;7.95;2.25;;;;;;;;;;5013673;28;20056;-89
2024/03/13 08:54:14;;;;;;;8.57;2.75;;;;;;;;;;5024556;28;20168;-90
2024/03/13 08:56:40;;;;;;;;;;;;;;;;;;5032097;28;20029;-91
2024/03/13 08:59:07;;;;;;;9.75;3.03;;;;;;;;;;5030120;28;19917;-91
2024/03/13 09:01:39;;;;;;;9.57;3.08;;;;;;;;;;5027756;28;20061;-88
2024/03/13 09:04:06;;;;;;;9.57;2.75;;;;;;;;;;5033480;28;20029;-89
2024/03/13 09:06:33;;;;;;;9.50;2.40;;;;;;;;;;5034263;28;20036;-88
2024/03/13 09:08:59;;;;;;;7.43;2.05;;;;;;;;;;5031981;28;20044;-89
2024/03/13 09:11:25;;;;;;;;;;;;;;;;;;5033855;28;20037;-90
2024/03/13 09:13:53;;;;;;;8.30;2.17;;;;;;;;;;5039161;28;19941;-88
2024/03/13 09:16:19;;;;;;;7.07;1.50;;;;;;;;;;5034128;28;20033;-91
2024/03/13 09:18:45;;;;;;;6.35;1.70;;;;;;;;;;5038632;28;20033;-87
2024/03/13 09:21:12;;;;;;;8.45;2.17;;;;;;;;;;5037571;28;20010;-89
2024/03/13 09:23:38;;;;;;;10.40;2.15;;;;;;;;;;5035314;28;20029;-88
2024/03/13 09:26:04;;;;;;;7.22;1.90;;;;;;;;;;5031797;28;20025;-88
2024/03/13 09:28:31;;;;;;;8.45;2.03;;;;;;;;;;5029282;28;20093;-89
2024/03/13 09:30:57;;;;;;;6.13;1.77;;;;;;;;;;5033017;28;20041;-87
2024/03/13 09:33:23;;;;;;;7.97;1.90;;;;;;;;;;5024127;28;20103;-87
2024/03/13 09:35:49;;;;;;;8.40;2.30;;;;;;;;;;5029629;28;20531;-91
2024/03/13 09:38:17;;;;;;;7.22;1.73;;;;;;;;;;5029239;28;20050;-89
2024/03/13 09:40:43;;;;;;;6.45;1.88;;;;;;;;;;5027636;28;20522;-88
2024/03/13 09:43:10;;;;;;;10.82;1.95;;;;;;;;;;5028046;28;20041;-87
2024/03/13 09:45:38;;;;;;;8.55;2.15;;;;;;;;;;5028185;28;20021;-88
2024/03/13 09:48:05;;;;;;;6.43;1.92;;;;;;;;;;5027230;28;20033;-89
2024/03/13 09:50:31;;;;;;;6.88;2.00;;;;;;;;;;5026060;28;20683;-87
2024/03/13 09:52:59;;;;;;;8.40;1.98;;;;;;;;;;5035447;28;20017;-89
2024/03/13 09:55:26;;;;;;;7.47;1.60;;;;;;;;;;5030885;28;20049;-88
2024/03/13 09:57:52;;;;;;;4.68;1.30;;;;;;;;;;5023276;28;20101;-88
2024/03/13 10:00:18;;;;;;;5.68;1.50;;;;;;;;;;5015352;28;20041;-87
2024/03/13 10:02:54;;;;;;;5.90;1.45;;;;;;;;;;5023872;28;20056;-86
2024/03/13 10:05:20;;;;;;;5.72;1.42;;;;;;;;;;5018181;28;20036;-86
2024/03/13 10:07:50;;;;;;;4.53;1.30;;;;;;;;;;5021257;28;20025;-86
2024/03/13 10:10:29;;;;;;;5.57;1.20;;;;;;;;;;5016826;28;20048;-87
2024/03/13 10:12:58;;;;;;;5.75;1.48;;;;;;;;;;5016825;28;20500;-87
2024/03/13 10:15:24;;;;;;;6.35;1.30;;;;;;;;;;5015057;28;20029;-86
2024/03/13 10:18:02;;;;;;;5.65;1.45;;;;;;;;;;5011767;28;20064;-86
2024/03/13 10:20:36;;;;;;;7.18;1.60;;;;;;;;;;5019314;28;20100;-86
2024/03/13 10:23:03;;;;;;;6.72;1.65;;;;;;;;;;5018833;28;20658;-90
2024/03/13 10:25:30;;;;;;;5.38;1.30;;;;;;;;;;5015681;28;20069;-88
2024/03/13 10:27:56;;;;;;;5.65;1.33;;;;;;;;;;5018740;28;20087;-87
2024/03/13 10:30:24;;;;;;;5.80;1.48;;;;;;;;;;5017114;28;20061;-89
2024/03/13 10:32:51;;;;;;;5.75;1.75;;;;;;;;;;5017902;28;20072;-87
2024/03/13 10:35:17;;;;;;;4.85;1.60;;;;;;;;;;5017258;28;20040;-89
2024/03/13 10:37:44;;;;;;;6.45;1.50;;;;;;;;;;5020775;28;20095;-90
2024/03/13 10:40:13;;;;;;;5.70;1.40;;;;;;;;;;5030313;28;20060;-89
2024/03/13 10:42:41;;;;;;;6.00;1.60;;;;;;;;;;5017124;28;20192;-79
2024/03/13 10:45:10;;;;;;;7.28;1.83;;;;;;;;;;5005199;28;20123;-87
2024/03/13 10:47:36;;;;;;;7.95;1.92;;;;;;;;;;5021599;28;20033;-88
2024/03/13 10:50:05;;;;;;;8.95;2.85;;;;;;;;;;5013729;28;20753;-87
2024/03/13 10:52:31;;;;;;;8.52;3.47;;;;;;;;;;5020400;28;20120;-86
2024/03/13 10:54:57;;;;;;;10.45;3.47;;;;;;;;;;5024858;28;20032;-87
2024/03/13 10:57:23;;;;;;;9.75;3.65;;;;;;;;;;5016345;28;20025;-87
2024/03/13 10:59:50;;;;;;;9.15;4.40;;;;;;;;;;5023360;28;20047;-87
2024/03/13 11:02:16;;;;;;;10.80;4.40;;;;;;;;;;5016246;28;20044;-87
2024/03/13 11:04:44;;;;;;;9.00;3.70;;;;;;;;;;5018558;28;20029;-88
2024/03/13 11:07:15;;;;;;;10.68;3.55;;;;;;;;;;5016009;28;20634;-88
2024/03/13 11:09:41;;;;;;;9.45;3.67;;;;;;;;;;5017012;28;20034;-89
2024/03/13 11:12:20;;;;;;;8.63;3.13;;;;;;;;;;5020948;28;20029;-87
2024/03/13 11:14:52;;;;;;;8.55;2.80;;;;;;;;;;5025548;28;20032;-88
2024/03/13 11:17:22;;;;;;;7.80;3.00;;;;;;;;;;5017187;28;20038;-88
2024/03/13 11:20:00;;;;;;;7.70;2.10;;;;;;;;;;5021021;28;20029;-89
2024/03/13 11:22:28;;;;;;;6.97;2.03;;;;;;;;;;5019217;28;20127;-88
2024/03/13 11:24:55;;;;;;;6.57;1.67;;;;;;;;;;5020726;28;20471;-87
2024/03/13 11:27:24;;;;;;;4.70;1.30;;;;;;;;;;5018938;28;20137;-88
2024/03/13 11:29:53;;;;;;;7.30;1.45;;;;;;;;;;5017113;28;20044;-86
2024/03/13 11:32:19;;;;;;;4.68;1.20;;;;;;;;;;5019394;28;20037;-88
2024/03/13 11:34:46;;;;;;;5.28;1.40;;;;;;;;;;5022762;28;20676;-89
2024/03/13 11:37:12;;;;;;;5.68;1.50;;;;;;;;;;5020537;28;20175;-89
2024/03/13 11:39:43;;;;;;;4.63;1.42;;;;;;;;;;5016105;28;20104;-89
2024/03/13 11:42:12;;;;;;;6.10;1.40;;;;;;;;;;5018189;28;20021;-89
2024/03/13 11:44:49;;;;;;;5.00;1.30;;;;;;;;;;5019558;28;20117;-87
2024/03/13 11:47:21;;;;;;;5.60;1.40;;;;;;;;;;5014878;28;20499;-87
2024/03/13 11:49:51;;;;;;;4.90;1.35;;;;;;;;;;5016823;28;20036;-89
2024/03/13 11:52:18;;;;;;;5.70;1.42;;;;;;;;;;5013064;28;20044;-87
2024/03/13 11:54:46;;;;;;;4.70;1.20;;;;;;;;;;5010404;28;20029;-79
2024/03/13 11:57:12;;;;;;;5.13;1.52;;;;;;;;;;4995061;28;20029;-79
2024/03/13 11:59:40;;;;;;;5.82;1.60;;;;;;;;;;4998528;28;20044;-80
2024/03/13 12:02:26;;;;;;;6.35;1.70;;;;;;;;;;4999945;28;20113;-80
2024/03/13 12:04:52;;;;;;;6.72;1.30;;;;;;;;;;5000267;28;20784;-79
2024/03/13 12:07:18;;;;;;;5.10;1.50;;;;;;;;;;4993488;28;20034;-78
2024/03/13 12:09:45;;;;;;;6.88;1.88;;;;;;;;;;4997468;28;20048;-78
2024/03/13 12:12:14;;;;;;;4.93;1.50;;;;;;;;;;4991266;28;20083;-80
2024/03/13 12:14:40;;;;;;;5.85;1.73;;;;;;;;;;4996801;28;20929;-78
2024/03/13 12:17:10;;;;;;;6.55;1.80;;;;;;;;;;4993804;28;20484;-79
2024/03/13 12:19:37;;;;;;;8.55;2.10;;;;;;;;;;4995927;28;20475;-77
2024/03/13 12:22:03;;;;;;;6.68;2.17;;;;;;;;;;4996632;28;20033;-79
2024/03/13 12:24:29;;;;;;;8.13;1.88;;;;;;;;;;4994671;28;20061;-78
2024/03/13 12:26:56;;;;;;;7.07;1.92;;;;;;;;;;4996194;28;20029;-77
2024/03/13 12:29:23;;;;;;;6.40;1.95;;;;;;;;;;4993147;28;20555;-77
2024/03/13 12:31:51;;;;;;;6.90;1.90;;;;;;;;;;4997165;28;20028;-78
2024/03/13 12:34:18;;;;;;;6.38;1.88;;;;;;;;;;4992540;28;20129;-78
2024/03/13 12:36:44;;;;;;;7.57;1.90;;;;;;;;;;4993554;28;20033;-78
2024/03/13 12:39:10;;;;;;;6.05;1.70;;;;;;;;;;4994664;28;20725;-76
2024/03/13 12:41:41;;;;;;;6.32;1.70;;;;;;;;;;4997278;28;20037;-79
2024/03/13 12:44:07;;;;;;;7.55;2.03;;;;;;;;;;4995989;28;20028;-77
2024/03/13 12:46:33;;;;;;;6.40;1.83;;;;;;;;;;4994749;28;20053;-78
2024/03/13 12:49:00;;;;;;;7.03;2.05;;;;;;;;;;4997345;28;20707;-76
2024/03/13 12:51:28;;;;;;;6.57;2.10;;;;;;;;;;5001095;28;23477;-80
2024/03/13 12:53:54;;;;;;;6.10;1.95;;;;;;;;;;5002221;28;20775;-78
2024/03/13 12:56:20;;;;;;;7.65;2.00;;;;;;;;;;4996491;28;20025;-77
2024/03/13 12:58:46;;;;;;;7.88;2.10;;;;;;;;;;4996676;28;20464;-80
2024/03/13 13:01:13;;;;;;;6.22;1.85;;;;;;;;;;4995286;28;20025;-78
2024/03/13 13:03:41;;;;;;;8.13;2.55;;;;;;;;;;4991795;28;20034;-78
2024/03/13 13:06:16;;;;;;;5.72;1.60;;;;;;;;;;4987446;28;20014;-78
2024/03/13 13:08:51;;;;;;;6.82;1.67;;;;;;;;;;4995606;28;20068;-79
2024/03/13 13:11:18;;;;;;;;;;;;;;;;;;4995558;28;20037;-77
2024/03/13 13:13:44;;;;;;;7.88;1.98;;;;;;;;;;4998095;28;20584;-79
2024/03/13 13:16:12;;;;;;;7.05;1.73;;;;;;;;;;4997911;28;20022;-80
2024/03/13 13:18:46;;;;;;;5.82;1.80;;;;;;;;;;4999892;28;20041;-79
2024/03/13 13:21:12;;;;;;;6.25;1.88;;;;;;;;;;4997433;28;20148;-78
2024/03/13 13:23:38;;;;;;;6.28;1.75;;;;;;;;;;4997612;28;20038;-81
2024/03/13 13:26:05;;;;;;;6.65;1.60;;;;;;;;;;4997487;28;20017;-80
2024/03/13 13:28:31;;;;;;;6.63;1.90;;;;;;;;;;4993552;28;20026;-81
2024/03/13 13:30:57;;;;;;;5.90;1.70;;;;;;;;;;4999162;28;20029;-81
2024/03/13 13:33:23;;;;;;;6.85;1.58;;;;;;;;;;4995968;28;20025;-81
2024/03/13 13:35:49;;;;;;;7.45;1.95;;;;;;;;;;4997859;28;20668;-79
2024/03/13 13:38:18;;;;;;;7.10;2.38;;;;;;;;;;5001467;28;20048;-80
2024/03/13 13:40:44;;;;;;;6.10;1.80;;;;;;;;;;5008430;28;20055;-81
2024/03/13 13:43:13;;;;;;;6.15;1.85;;;;;;;;;;5002751;28;20085;-81
2024/03/13 13:45:40;;;;;;;6.45;2.10;;;;;;;;;;4999550;28;20424;-81
2024/03/13 13:48:08;;;;;;;9.57;1.98;;;;;;;;;;4993216;28;20040;-80
2024/03/13 13:50:37;;;;;;;6.80;1.90;;;;;;;;;;5000167;28;20028;-80
2024/03/13 13:53:03;;;;;;;7.65;2.10;;;;;;;;;;4999105;28;20029;-80
2024/03/13 13:55:29;;;;;;;6.82;1.90;;;;;;;;;;4998382;28;20040;-77
2024/03/13 13:57:55;;;;;;;6.40;1.90;;;;;;;;;;5000887;28;20471;-78
2024/03/13 14:00:21;;;;;;;8.25;2.00;;;;;;;;;;4999126;28;20037;-79
2024/03/13 14:02:48;;;;;;;7.55;2.20;;;;;;;;;;5005183;28;20031;-78
2024/03/13 14:05:16;;;;;;;7.97;2.17;;;;;;;;;;4991547;28;20563;-79
2024/03/13 14:07:45;;;;;;;7.95;1.88;;;;;;;;;;5000006;28;20041;-79
2024/03/13 14:10:11;;;;;;;9.18;2.00;;;;;;;;;;4995116;28;20036;-78
2024/03/13 14:12:38;;;;;;;7.68;2.05;;;;;;;;;;5003778;28;20037;-78
2024/03/13 14:15:08;;;;;;;7.00;1.98;;;;;;;;;;5002756;28;20035;-79
2024/03/13 14:17:34;;;;;;;6.53;1.80;;;;;;;;;;5000962;28;20060;-81
2024/03/13 14:20:01;;;;;;;7.72;1.90;;;;;;;;;;4999211;28;20022;-80
2024/03/13 14:22:27;;;;;;;6.32;2.08;;;;;;;;;;4995934;28;20037;-81
2024/03/13 14:24:54;;;;;;;9.65;2.28;;;;;;;;;;5001866;28;20360;-81
2024/03/13 14:27:21;;;;;;;7.15;2.10;;;;;;;;;;4999414;28;20033;-80
2024/03/13 14:29:47;;;;;;;7.30;2.10;;;;;;;;;;5001705;28;20136;-80
2024/03/13 14:32:13;;;;;;;7.93;2.35;;;;;;;;;;4999052;28;20044;-80
2024/03/13 14:34:39;;;;;;;8.15;2.15;;;;;;;;;;5002833;28;20025;-81
2024/03/13 14:37:08;;;;;;;7.32;2.05;;;;;;;;;;4998212;28;20029;-80
2024/03/13 14:39:35;;;;;;;6.88;1.98;;;;;;;;;;5002078;28;20046;-81
2024/03/13 14:42:01;;;;;;;6.05;1.88;;;;;;;;;;5001250;28;20603;-82
2024/03/13 14:44:28;;;;;;;6.57;1.88;;;;;;;;;;4998382;28;21862;-78
2024/03/13 14:46:54;;;;;;;6.43;2.03;;;;;;;;;;5000899;28;20251;-80
2024/03/13 14:49:20;;;;;;;6.60;1.83;;;;;;;;;;4995511;28;21634;-83
2024/03/13 14:51:47;;;;;;;5.53;1.60;;;;;;;;;;5003814;28;20059;-81
2024/03/13 14:54:13;;;;;;;6.38;1.80;;;;;;;;;;4999112;28;20064;-82
2024/03/13 14:56:39;;;;;;;7.65;2.10;;;;;;;;;;5005807;28;20505;-80
2024/03/13 14:59:05;;;;;;;8.10;2.20;;;;;;;;;;5004954;28;20029;-81
2024/03/13 15:01:34;;;;;;;8.52;2.20;;;;;;;;;;4997755;28;20080;-81
2024/03/13 15:04:01;;;;;;;6.82;2.00;;;;;;;;;;5005354;28;20161;-80